sensor_id;sensor_type;location;lat;lon;timestamp;P1;durP1;ratioP1;P2;durP2;ratioP2
28266;SDS011;15525;45.568;5.448;2023-02-28T00:00:12;33.63;;;17.45;;
28266;SDS011;15525;45.568;5.448;2023-02-28T00:02:39;36.92;;;19.05;;
28266;SDS011;15525;45.568;5.448;2023-02-28T00:05:05;38.30;;;19.85;;
28266;SDS011;15525;45.568;5.448;2023-02-28T00:07:32;39.90;;;19.05;;
28266;SDS011;15525;45.568;5.448;2023-02-28T00:09:58;32.70;;;17.67;;
28266;SDS011;15525;45.568;5.448;2023-02-28T00:12:23;39.20;;;18.55;;
28266;SDS011;15525;45.568;5.448;2023-02-28T00:14:50;35.50;;;18.25;;
28266;SDS011;15525;45.568;5.448;2023-02-28T00:17:16;37.83;;;18.92;;
28266;SDS011;15525;45.568;5.448;2023-02-28T00:19:49;36.95;;;18.92;;
28266;SDS011;15525;45.568;5.448;2023-02-28T00:22:16;34.05;;;17.75;;
28266;SDS011;15525;45.568;5.448;2023-02-28T00:24:45;33.35;;;17.52;;
28266;SDS011;15525;45.568;5.448;2023-02-28T00:27:11;32.30;;;17.45;;
28266;SDS011;15525;45.568;5.448;2023-02-28T00:29:37;32.72;;;17.40;;
28266;SDS011;15525;45.568;5.448;2023-02-28T00:32:02;36.13;;;17.88;;
28266;SDS011;15525;45.568;5.448;2023-02-28T00:34:29;35.15;;;17.65;;
28266;SDS011;15525;45.568;5.448;2023-02-28T00:36:54;34.67;;;18.15;;
28266;SDS011;15525;45.568;5.448;2023-02-28T00:39:20;32.83;;;17.80;;
28266;SDS011;15525;45.568;5.448;2023-02-28T00:41:46;35.53;;;18.63;;
28266;SDS011;15525;45.568;5.448;2023-02-28T00:44:11;31.27;;;16.65;;
28266;SDS011;15525;45.568;5.448;2023-02-28T00:46:37;35.55;;;18.23;;
28266;SDS011;15525;45.568;5.448;2023-02-28T00:49:02;36.70;;;18.02;;
28266;SDS011;15525;45.568;5.448;2023-02-28T00:51:28;33.08;;;17.20;;
28266;SDS011;15525;45.568;5.448;2023-02-28T00:53:53;34.55;;;17.50;;
28266;SDS011;15525;45.568;5.448;2023-02-28T00:56:19;30.60;;;16.98;;
28266;SDS011;15525;45.568;5.448;2023-02-28T00:58:45;36.13;;;17.55;;
28266;SDS011;15525;45.568;5.448;2023-02-28T01:01:11;35.28;;;18.02;;
28266;SDS011;15525;45.568;5.448;2023-02-28T01:03:36;36.20;;;18.23;;
28266;SDS011;15525;45.568;5.448;2023-02-28T01:06:02;34.05;;;17.40;;
28266;SDS011;15525;45.568;5.448;2023-02-28T01:08:27;32.97;;;17.27;;
28266;SDS011;15525;45.568;5.448;2023-02-28T01:10:53;31.27;;;16.55;;
28266;SDS011;15525;45.568;5.448;2023-02-28T01:13:18;32.53;;;17.83;;
28266;SDS011;15525;45.568;5.448;2023-02-28T01:15:51;30.60;;;16.20;;
28266;SDS011;15525;45.568;5.448;2023-02-28T01:18:20;38.42;;;19.33;;
28266;SDS011;15525;45.568;5.448;2023-02-28T01:20:46;36.10;;;17.48;;
28266;SDS011;15525;45.568;5.448;2023-02-28T01:23:12;31.95;;;17.73;;
28266;SDS011;15525;45.568;5.448;2023-02-28T01:25:37;35.72;;;20.33;;
28266;SDS011;15525;45.568;5.448;2023-02-28T01:28:03;35.75;;;19.23;;
28266;SDS011;15525;45.568;5.448;2023-02-28T01:30:29;37.97;;;19.25;;
28266;SDS011;15525;45.568;5.448;2023-02-28T01:32:55;33.80;;;18.60;;
28266;SDS011;15525;45.568;5.448;2023-02-28T01:35:20;38.25;;;20.40;;
28266;SDS011;15525;45.568;5.448;2023-02-28T01:37:46;35.95;;;18.98;;
28266;SDS011;15525;45.568;5.448;2023-02-28T01:40:11;35.50;;;18.60;;
28266;SDS011;15525;45.568;5.448;2023-02-28T01:42:37;33.83;;;18.23;;
28266;SDS011;15525;45.568;5.448;2023-02-28T01:45:08;31.67;;;17.70;;
28266;SDS011;15525;45.568;5.448;2023-02-28T01:47:47;31.85;;;16.75;;
28266;SDS011;15525;45.568;5.448;2023-02-28T01:50:18;30.08;;;17.40;;
28266;SDS011;15525;45.568;5.448;2023-02-28T01:52:49;31.77;;;16.75;;
28266;SDS011;15525;45.568;5.448;2023-02-28T01:55:17;30.67;;;15.77;;
28266;SDS011;15525;45.568;5.448;2023-02-28T01:57:46;28.08;;;16.02;;
28266;SDS011;15525;45.568;5.448;2023-02-28T02:00:16;30.92;;;16.45;;
28266;SDS011;15525;45.568;5.448;2023-02-28T02:02:46;35.00;;;16.80;;
28266;SDS011;15525;45.568;5.448;2023-02-28T02:05:17;31.10;;;16.75;;
28266;SDS011;15525;45.568;5.448;2023-02-28T02:07:45;30.67;;;16.38;;
28266;SDS011;15525;45.568;5.448;2023-02-28T02:10:14;32.47;;;16.52;;
28266;SDS011;15525;45.568;5.448;2023-02-28T02:12:50;31.50;;;16.02;;
28266;SDS011;15525;45.568;5.448;2023-02-28T02:39:40;29.88;;;15.63;;
28266;SDS011;15525;45.568;5.448;2023-02-28T02:42:16;30.48;;;14.95;;
28266;SDS011;15525;45.568;5.448;2023-02-28T02:44:50;28.00;;;14.52;;
28266;SDS011;15525;45.568;5.448;2023-02-28T02:47:23;30.90;;;15.68;;
28266;SDS011;15525;45.568;5.448;2023-02-28T02:49:52;29.42;;;14.18;;
28266;SDS011;15525;45.568;5.448;2023-02-28T02:52:22;26.17;;;14.10;;
28266;SDS011;15525;45.568;5.448;2023-02-28T02:54:54;26.60;;;13.48;;
28266;SDS011;15525;45.568;5.448;2023-02-28T02:57:33;26.45;;;12.95;;
28266;SDS011;15525;45.568;5.448;2023-02-28T03:00:04;23.60;;;13.20;;
28266;SDS011;15525;45.568;5.448;2023-02-28T03:02:34;26.52;;;13.02;;
28266;SDS011;15525;45.568;5.448;2023-02-28T03:05:06;23.65;;;13.15;;
28266;SDS011;15525;45.568;5.448;2023-02-28T03:07:39;26.48;;;13.35;;
28266;SDS011;15525;45.568;5.448;2023-02-28T03:10:25;25.63;;;13.73;;
28266;SDS011;15525;45.568;5.448;2023-02-28T03:16:17;24.88;;;12.32;;
28266;SDS011;15525;45.568;5.448;2023-02-28T03:21:49;25.77;;;13.00;;
28266;SDS011;15525;45.568;5.448;2023-02-28T03:25:00;23.48;;;12.43;;
28266;SDS011;15525;45.568;5.448;2023-02-28T03:30:00;21.85;;;12.13;;
28266;SDS011;15525;45.568;5.448;2023-02-28T03:37:31;23.58;;;12.35;;
28266;SDS011;15525;45.568;5.448;2023-02-28T03:40:05;23.10;;;13.35;;
28266;SDS011;15525;45.568;5.448;2023-02-28T03:42:35;25.55;;;12.80;;
28266;SDS011;15525;45.568;5.448;2023-02-28T03:45:08;24.23;;;13.05;;
28266;SDS011;15525;45.568;5.448;2023-02-28T03:47:39;24.90;;;13.07;;
28266;SDS011;15525;45.568;5.448;2023-02-28T03:53:04;23.08;;;12.25;;
28266;SDS011;15525;45.568;5.448;2023-02-28T03:55:40;21.60;;;11.93;;
28266;SDS011;15525;45.568;5.448;2023-02-28T03:58:12;22.95;;;12.45;;
28266;SDS011;15525;45.568;5.448;2023-02-28T04:01:07;23.17;;;12.45;;
28266;SDS011;15525;45.568;5.448;2023-02-28T04:03:37;22.15;;;11.75;;
28266;SDS011;15525;45.568;5.448;2023-02-28T04:06:04;25.17;;;11.80;;
28266;SDS011;15525;45.568;5.448;2023-02-28T04:08:32;22.00;;;11.68;;
28266;SDS011;15525;45.568;5.448;2023-02-28T04:11:02;21.20;;;11.32;;
28266;SDS011;15525;45.568;5.448;2023-02-28T04:13:31;21.83;;;11.68;;
28266;SDS011;15525;45.568;5.448;2023-02-28T04:15:57;20.83;;;11.18;;
28266;SDS011;15525;45.568;5.448;2023-02-28T04:18:22;20.38;;;10.75;;
28266;SDS011;15525;45.568;5.448;2023-02-28T04:20:48;22.45;;;11.95;;
28266;SDS011;15525;45.568;5.448;2023-02-28T04:23:13;20.08;;;11.10;;
28266;SDS011;15525;45.568;5.448;2023-02-28T04:25:38;21.73;;;11.57;;
28266;SDS011;15525;45.568;5.448;2023-02-28T04:28:05;25.25;;;11.88;;
28266;SDS011;15525;45.568;5.448;2023-02-28T04:30:30;22.35;;;11.50;;
28266;SDS011;15525;45.568;5.448;2023-02-28T04:32:57;20.85;;;11.85;;
28266;SDS011;15525;45.568;5.448;2023-02-28T04:35:23;22.83;;;11.68;;
28266;SDS011;15525;45.568;5.448;2023-02-28T04:37:49;21.48;;;11.13;;
28266;SDS011;15525;45.568;5.448;2023-02-28T04:40:14;20.70;;;10.90;;
28266;SDS011;15525;45.568;5.448;2023-02-28T04:42:40;21.23;;;11.73;;
28266;SDS011;15525;45.568;5.448;2023-02-28T04:45:05;21.20;;;11.55;;
28266;SDS011;15525;45.568;5.448;2023-02-28T04:47:32;19.50;;;10.70;;
28266;SDS011;15525;45.568;5.448;2023-02-28T04:49:57;22.27;;;11.23;;
28266;SDS011;15525;45.568;5.448;2023-02-28T04:52:22;21.42;;;11.02;;
28266;SDS011;15525;45.568;5.448;2023-02-28T04:54:48;23.48;;;11.68;;
28266;SDS011;15525;45.568;5.448;2023-02-28T04:57:14;20.60;;;11.20;;
28266;SDS011;15525;45.568;5.448;2023-02-28T04:59:39;19.42;;;10.85;;
28266;SDS011;15525;45.568;5.448;2023-02-28T05:02:04;22.73;;;11.70;;
28266;SDS011;15525;45.568;5.448;2023-02-28T05:04:32;20.42;;;10.63;;
28266;SDS011;15525;45.568;5.448;2023-02-28T05:06:59;20.25;;;11.20;;
28266;SDS011;15525;45.568;5.448;2023-02-28T05:09:25;21.65;;;10.82;;
28266;SDS011;15525;45.568;5.448;2023-02-28T05:11:51;19.67;;;10.82;;
28266;SDS011;15525;45.568;5.448;2023-02-28T05:14:16;24.73;;;11.27;;
28266;SDS011;15525;45.568;5.448;2023-02-28T05:16:42;19.15;;;10.55;;
28266;SDS011;15525;45.568;5.448;2023-02-28T05:19:07;21.08;;;11.32;;
28266;SDS011;15525;45.568;5.448;2023-02-28T05:24:01;22.13;;;11.77;;
28266;SDS011;15525;45.568;5.448;2023-02-28T05:26:28;21.60;;;11.20;;
28266;SDS011;15525;45.568;5.448;2023-02-28T05:28:55;22.70;;;12.15;;
28266;SDS011;15525;45.568;5.448;2023-02-28T05:31:20;24.65;;;12.45;;
28266;SDS011;15525;45.568;5.448;2023-02-28T05:33:46;26.40;;;12.02;;
28266;SDS011;15525;45.568;5.448;2023-02-28T05:36:12;21.67;;;11.90;;
28266;SDS011;15525;45.568;5.448;2023-02-28T05:38:38;23.85;;;12.00;;
28266;SDS011;15525;45.568;5.448;2023-02-28T05:41:09;20.20;;;11.85;;
28266;SDS011;15525;45.568;5.448;2023-02-28T05:43:36;20.77;;;11.38;;
28266;SDS011;15525;45.568;5.448;2023-02-28T05:46:05;23.13;;;11.82;;
28266;SDS011;15525;45.568;5.448;2023-02-28T05:48:33;23.90;;;11.90;;
28266;SDS011;15525;45.568;5.448;2023-02-28T05:50:59;22.05;;;11.23;;
28266;SDS011;15525;45.568;5.448;2023-02-28T05:53:25;24.15;;;11.73;;
28266;SDS011;15525;45.568;5.448;2023-02-28T05:55:51;22.38;;;11.50;;
28266;SDS011;15525;45.568;5.448;2023-02-28T05:58:16;20.98;;;10.93;;
28266;SDS011;15525;45.568;5.448;2023-02-28T06:00:42;19.45;;;10.90;;
28266;SDS011;15525;45.568;5.448;2023-02-28T06:03:07;19.55;;;10.90;;
28266;SDS011;15525;45.568;5.448;2023-02-28T06:05:33;19.35;;;11.13;;
28266;SDS011;15525;45.568;5.448;2023-02-28T06:07:58;19.80;;;10.48;;
28266;SDS011;15525;45.568;5.448;2023-02-28T06:10:24;19.80;;;10.38;;
28266;SDS011;15525;45.568;5.448;2023-02-28T06:12:49;20.00;;;10.25;;
28266;SDS011;15525;45.568;5.448;2023-02-28T06:15:15;21.00;;;10.68;;
28266;SDS011;15525;45.568;5.448;2023-02-28T06:17:42;19.58;;;10.27;;
28266;SDS011;15525;45.568;5.448;2023-02-28T06:20:08;20.50;;;11.02;;
28266;SDS011;15525;45.568;5.448;2023-02-28T06:22:35;19.85;;;10.15;;
28266;SDS011;15525;45.568;5.448;2023-02-28T06:25:02;19.15;;;10.13;;
28266;SDS011;15525;45.568;5.448;2023-02-28T06:27:30;17.45;;;10.43;;
28266;SDS011;15525;45.568;5.448;2023-02-28T06:29:56;23.05;;;10.93;;
28266;SDS011;15525;45.568;5.448;2023-02-28T06:32:21;19.52;;;10.27;;
28266;SDS011;15525;45.568;5.448;2023-02-28T06:34:47;21.13;;;10.63;;
28266;SDS011;15525;45.568;5.448;2023-02-28T06:37:12;20.92;;;10.63;;
28266;SDS011;15525;45.568;5.448;2023-02-28T06:39:38;24.23;;;10.52;;
28266;SDS011;15525;45.568;5.448;2023-02-28T06:42:04;20.45;;;10.52;;
28266;SDS011;15525;45.568;5.448;2023-02-28T06:44:29;24.42;;;11.77;;
28266;SDS011;15525;45.568;5.448;2023-02-28T06:47:01;20.00;;;10.55;;
28266;SDS011;15525;45.568;5.448;2023-02-28T06:49:30;19.15;;;10.32;;
28266;SDS011;15525;45.568;5.448;2023-02-28T06:51:56;26.05;;;10.95;;
28266;SDS011;15525;45.568;5.448;2023-02-28T06:54:22;22.15;;;11.07;;
28266;SDS011;15525;45.568;5.448;2023-02-28T06:56:47;21.73;;;10.45;;
28266;SDS011;15525;45.568;5.448;2023-02-28T06:59:12;20.63;;;11.07;;
28266;SDS011;15525;45.568;5.448;2023-02-28T07:01:38;20.05;;;10.73;;
28266;SDS011;15525;45.568;5.448;2023-02-28T07:04:04;19.95;;;11.05;;
28266;SDS011;15525;45.568;5.448;2023-02-28T07:06:30;20.88;;;10.98;;
28266;SDS011;15525;45.568;5.448;2023-02-28T07:08:56;21.67;;;10.15;;
28266;SDS011;15525;45.568;5.448;2023-02-28T07:11:23;20.25;;;9.70;;
28266;SDS011;15525;45.568;5.448;2023-02-28T07:13:51;19.83;;;10.15;;
28266;SDS011;15525;45.568;5.448;2023-02-28T07:16:17;20.30;;;9.95;;
28266;SDS011;15525;45.568;5.448;2023-02-28T07:18:43;21.83;;;11.38;;
28266;SDS011;15525;45.568;5.448;2023-02-28T07:21:09;20.75;;;10.82;;
28266;SDS011;15525;45.568;5.448;2023-02-28T07:23:35;19.45;;;10.48;;
28266;SDS011;15525;45.568;5.448;2023-02-28T07:26:03;23.10;;;11.07;;
28266;SDS011;15525;45.568;5.448;2023-02-28T07:28:29;19.95;;;11.07;;
28266;SDS011;15525;45.568;5.448;2023-02-28T07:30:55;22.15;;;11.25;;
28266;SDS011;15525;45.568;5.448;2023-02-28T07:33:20;26.10;;;11.77;;
28266;SDS011;15525;45.568;5.448;2023-02-28T07:35:45;22.60;;;11.57;;
28266;SDS011;15525;45.568;5.448;2023-02-28T07:38:11;18.40;;;10.68;;
28266;SDS011;15525;45.568;5.448;2023-02-28T07:40:38;22.45;;;11.40;;
28266;SDS011;15525;45.568;5.448;2023-02-28T07:43:04;22.65;;;10.70;;
28266;SDS011;15525;45.568;5.448;2023-02-28T07:45:30;21.77;;;11.27;;
28266;SDS011;15525;45.568;5.448;2023-02-28T07:47:57;22.05;;;12.18;;
28266;SDS011;15525;45.568;5.448;2023-02-28T07:50:23;20.30;;;11.05;;
28266;SDS011;15525;45.568;5.448;2023-02-28T07:52:48;22.67;;;11.40;;
28266;SDS011;15525;45.568;5.448;2023-02-28T07:55:14;24.55;;;12.02;;
28266;SDS011;15525;45.568;5.448;2023-02-28T07:57:40;20.85;;;11.38;;
28266;SDS011;15525;45.568;5.448;2023-02-28T08:00:07;23.92;;;11.45;;
28266;SDS011;15525;45.568;5.448;2023-02-28T08:02:37;21.05;;;11.00;;
28266;SDS011;15525;45.568;5.448;2023-02-28T08:05:03;23.25;;;10.77;;
28266;SDS011;15525;45.568;5.448;2023-02-28T08:07:29;22.88;;;11.55;;
28266;SDS011;15525;45.568;5.448;2023-02-28T08:09:54;20.48;;;11.32;;
28266;SDS011;15525;45.568;5.448;2023-02-28T08:12:19;24.30;;;11.52;;
28266;SDS011;15525;45.568;5.448;2023-02-28T08:14:45;21.40;;;10.35;;
28266;SDS011;15525;45.568;5.448;2023-02-28T08:17:11;20.80;;;10.20;;
28266;SDS011;15525;45.568;5.448;2023-02-28T08:19:36;17.65;;;10.02;;
28266;SDS011;15525;45.568;5.448;2023-02-28T08:22:02;18.58;;;10.85;;
28266;SDS011;15525;45.568;5.448;2023-02-28T08:24:28;19.60;;;10.43;;
28266;SDS011;15525;45.568;5.448;2023-02-28T08:26:54;21.10;;;11.38;;
28266;SDS011;15525;45.568;5.448;2023-02-28T08:29:20;18.05;;;10.07;;
28266;SDS011;15525;45.568;5.448;2023-02-28T08:31:45;18.63;;;10.55;;
28266;SDS011;15525;45.568;5.448;2023-02-28T08:34:12;16.75;;;9.73;;
28266;SDS011;15525;45.568;5.448;2023-02-28T08:36:40;21.05;;;10.95;;
28266;SDS011;15525;45.568;5.448;2023-02-28T08:39:06;22.55;;;10.98;;
28266;SDS011;15525;45.568;5.448;2023-02-28T08:41:32;20.48;;;11.30;;
28266;SDS011;15525;45.568;5.448;2023-02-28T08:43:58;22.27;;;10.85;;
28266;SDS011;15525;45.568;5.448;2023-02-28T08:46:24;18.88;;;10.70;;
28266;SDS011;15525;45.568;5.448;2023-02-28T08:48:53;19.20;;;10.80;;
28266;SDS011;15525;45.568;5.448;2023-02-28T08:51:19;19.10;;;10.20;;
28266;SDS011;15525;45.568;5.448;2023-02-28T08:53:54;18.67;;;10.70;;
28266;SDS011;15525;45.568;5.448;2023-02-28T08:56:22;17.45;;;10.15;;
28266;SDS011;15525;45.568;5.448;2023-02-28T08:58:48;20.10;;;10.10;;
28266;SDS011;15525;45.568;5.448;2023-02-28T09:01:15;19.77;;;10.75;;
28266;SDS011;15525;45.568;5.448;2023-02-28T09:03:45;18.30;;;10.18;;
28266;SDS011;15525;45.568;5.448;2023-02-28T09:06:12;18.67;;;10.63;;
28266;SDS011;15525;45.568;5.448;2023-02-28T09:08:39;19.63;;;10.40;;
28266;SDS011;15525;45.568;5.448;2023-02-28T09:11:05;18.75;;;10.77;;
28266;SDS011;15525;45.568;5.448;2023-02-28T09:13:31;19.17;;;10.20;;
28266;SDS011;15525;45.568;5.448;2023-02-28T09:15:57;21.30;;;10.70;;
28266;SDS011;15525;45.568;5.448;2023-02-28T09:18:25;19.83;;;10.98;;
28266;SDS011;15525;45.568;5.448;2023-02-28T09:20:51;17.33;;;10.38;;
28266;SDS011;15525;45.568;5.448;2023-02-28T09:23:16;20.25;;;10.48;;
28266;SDS011;15525;45.568;5.448;2023-02-28T09:25:46;17.33;;;10.20;;
28266;SDS011;15525;45.568;5.448;2023-02-28T09:28:16;19.65;;;10.32;;
28266;SDS011;15525;45.568;5.448;2023-02-28T09:30:42;18.33;;;10.63;;
28266;SDS011;15525;45.568;5.448;2023-02-28T09:33:10;18.45;;;10.18;;
28266;SDS011;15525;45.568;5.448;2023-02-28T09:35:35;20.55;;;11.02;;
28266;SDS011;15525;45.568;5.448;2023-02-28T09:38:02;20.63;;;11.05;;
28266;SDS011;15525;45.568;5.448;2023-02-28T09:40:28;21.98;;;11.32;;
28266;SDS011;15525;45.568;5.448;2023-02-28T09:42:55;20.10;;;10.23;;
28266;SDS011;15525;45.568;5.448;2023-02-28T09:45:27;19.73;;;10.90;;
28266;SDS011;15525;45.568;5.448;2023-02-28T09:47:56;18.80;;;10.77;;
28266;SDS011;15525;45.568;5.448;2023-02-28T09:53:06;19.02;;;11.00;;
28266;SDS011;15525;45.568;5.448;2023-02-28T09:55:55;19.10;;;10.65;;
28266;SDS011;15525;45.568;5.448;2023-02-28T10:01:45;18.35;;;10.65;;
28266;SDS011;15525;45.568;5.448;2023-02-28T10:03:55;15.95;;;10.77;;
28266;SDS011;15525;45.568;5.448;2023-02-28T10:06:34;17.35;;;10.30;;
28266;SDS011;15525;45.568;5.448;2023-02-28T10:09:17;23.33;;;11.13;;
28266;SDS011;15525;45.568;5.448;2023-02-28T10:11:44;20.17;;;11.65;;
28266;SDS011;15525;45.568;5.448;2023-02-28T10:14:12;23.90;;;12.07;;
28266;SDS011;15525;45.568;5.448;2023-02-28T10:16:51;22.58;;;11.90;;
28266;SDS011;15525;45.568;5.448;2023-02-28T10:24:46;21.02;;;12.07;;
28266;SDS011;15525;45.568;5.448;2023-02-28T10:27:26;21.10;;;12.13;;
28266;SDS011;15525;45.568;5.448;2023-02-28T10:29:58;22.35;;;11.70;;
28266;SDS011;15525;45.568;5.448;2023-02-28T10:35:15;19.70;;;11.68;;
28266;SDS011;15525;45.568;5.448;2023-02-28T10:37:41;19.63;;;11.98;;
28266;SDS011;15525;45.568;5.448;2023-02-28T10:43:01;22.98;;;12.10;;
28266;SDS011;15525;45.568;5.448;2023-02-28T10:45:30;19.92;;;11.75;;
28266;SDS011;15525;45.568;5.448;2023-02-28T10:48:04;20.13;;;12.05;;
28266;SDS011;15525;45.568;5.448;2023-02-28T10:53:27;22.30;;;12.40;;
28266;SDS011;15525;45.568;5.448;2023-02-28T11:01:37;22.15;;;12.70;;
28266;SDS011;15525;45.568;5.448;2023-02-28T11:07:01;17.65;;;11.82;;
28266;SDS011;15525;45.568;5.448;2023-02-28T11:09:39;20.67;;;12.30;;
28266;SDS011;15525;45.568;5.448;2023-02-28T11:12:06;21.63;;;12.35;;
28266;SDS011;15525;45.568;5.448;2023-02-28T11:14:50;20.70;;;12.52;;
28266;SDS011;15525;45.568;5.448;2023-02-28T11:17:21;22.00;;;12.73;;
28266;SDS011;15525;45.568;5.448;2023-02-28T11:19:54;24.55;;;12.40;;
28266;SDS011;15525;45.568;5.448;2023-02-28T11:22:27;21.17;;;12.80;;
28266;SDS011;15525;45.568;5.448;2023-02-28T11:24:55;19.83;;;12.65;;
28266;SDS011;15525;45.568;5.448;2023-02-28T11:29:57;20.77;;;12.98;;
28266;SDS011;15525;45.568;5.448;2023-02-28T11:32:27;19.67;;;12.45;;
28266;SDS011;15525;45.568;5.448;2023-02-28T11:37:36;21.38;;;13.05;;
28266;SDS011;15525;45.568;5.448;2023-02-28T11:40:12;24.40;;;13.30;;
28266;SDS011;15525;45.568;5.448;2023-02-28T11:42:43;24.98;;;13.18;;
28266;SDS011;15525;45.568;5.448;2023-02-28T11:45:31;23.15;;;13.68;;
28266;SDS011;15525;45.568;5.448;2023-02-28T11:48:12;19.98;;;13.43;;
28266;SDS011;15525;45.568;5.448;2023-02-28T11:56:22;21.95;;;13.27;;
28266;SDS011;15525;45.568;5.448;2023-02-28T11:58:55;21.30;;;13.38;;
28266;SDS011;15525;45.568;5.448;2023-02-28T12:04:38;24.02;;;13.80;;
28266;SDS011;15525;45.568;5.448;2023-02-28T12:07:31;21.38;;;13.32;;
28266;SDS011;15525;45.568;5.448;2023-02-28T12:10:24;22.05;;;13.55;;
28266;SDS011;15525;45.568;5.448;2023-02-28T12:21:01;24.55;;;14.60;;
28266;SDS011;15525;45.568;5.448;2023-02-28T12:28:51;21.30;;;13.27;;
28266;SDS011;15525;45.568;5.448;2023-02-28T12:31:20;23.30;;;14.52;;
28266;SDS011;15525;45.568;5.448;2023-02-28T12:33:53;21.45;;;13.63;;
28266;SDS011;15525;45.568;5.448;2023-02-28T12:36:24;22.20;;;13.43;;
28266;SDS011;15525;45.568;5.448;2023-02-28T12:47:02;23.83;;;13.52;;
28266;SDS011;15525;45.568;5.448;2023-02-28T12:49:34;25.88;;;13.88;;
28266;SDS011;15525;45.568;5.448;2023-02-28T12:52:07;21.45;;;14.27;;
28266;SDS011;15525;45.568;5.448;2023-02-28T12:59:57;24.02;;;13.98;;
28266;SDS011;15525;45.568;5.448;2023-02-28T13:05:24;22.13;;;13.70;;
28266;SDS011;15525;45.568;5.448;2023-02-28T13:10:46;22.60;;;13.30;;
28266;SDS011;15525;45.568;5.448;2023-02-28T13:13:19;20.85;;;13.18;;
28266;SDS011;15525;45.568;5.448;2023-02-28T13:18:31;22.02;;;14.30;;
28266;SDS011;15525;45.568;5.448;2023-02-28T13:21:21;22.90;;;14.13;;
28266;SDS011;15525;45.568;5.448;2023-02-28T13:26:20;21.98;;;13.68;;
28266;SDS011;15525;45.568;5.448;2023-02-28T13:31:24;21.30;;;13.52;;
28266;SDS011;15525;45.568;5.448;2023-02-28T13:36:30;21.30;;;13.30;;
28266;SDS011;15525;45.568;5.448;2023-02-28T13:38:57;20.73;;;12.77;;
28266;SDS011;15525;45.568;5.448;2023-02-28T13:44:04;20.92;;;13.30;;
28266;SDS011;15525;45.568;5.448;2023-02-28T13:52:12;23.33;;;13.25;;
28266;SDS011;15525;45.568;5.448;2023-02-28T13:55:03;23.75;;;13.07;;
28266;SDS011;15525;45.568;5.448;2023-02-28T14:09:00;19.65;;;12.38;;
28266;SDS011;15525;45.568;5.448;2023-02-28T14:11:48;22.38;;;12.88;;
28266;SDS011;15525;45.568;5.448;2023-02-28T14:17:02;26.58;;;15.10;;
28266;SDS011;15525;45.568;5.448;2023-02-28T14:19:30;25.60;;;14.73;;
28266;SDS011;15525;45.568;5.448;2023-02-28T14:25:14;23.92;;;14.18;;
28266;SDS011;15525;45.568;5.448;2023-02-28T14:36:32;23.63;;;13.85;;
28266;SDS011;15525;45.568;5.448;2023-02-28T14:39:06;27.85;;;15.23;;
28266;SDS011;15525;45.568;5.448;2023-02-28T14:41:37;22.05;;;13.50;;
28266;SDS011;15525;45.568;5.448;2023-02-28T14:46:50;23.80;;;14.48;;
28266;SDS011;15525;45.568;5.448;2023-02-28T14:49:20;23.48;;;14.93;;
28266;SDS011;15525;45.568;5.448;2023-02-28T14:51:46;23.27;;;14.52;;
28266;SDS011;15525;45.568;5.448;2023-02-28T14:54:15;24.17;;;14.90;;
28266;SDS011;15525;45.568;5.448;2023-02-28T14:56:48;24.05;;;14.98;;
28266;SDS011;15525;45.568;5.448;2023-02-28T14:59:22;23.58;;;15.13;;
28266;SDS011;15525;45.568;5.448;2023-02-28T15:01:51;28.55;;;17.17;;
28266;SDS011;15525;45.568;5.448;2023-02-28T15:04:25;27.88;;;15.55;;
28266;SDS011;15525;45.568;5.448;2023-02-28T15:07:12;26.13;;;15.10;;
28266;SDS011;15525;45.568;5.448;2023-02-28T15:09:39;23.33;;;14.27;;
28266;SDS011;15525;45.568;5.448;2023-02-28T15:12:05;24.50;;;14.73;;
28266;SDS011;15525;45.568;5.448;2023-02-28T15:14:31;23.73;;;13.93;;
28266;SDS011;15525;45.568;5.448;2023-02-28T15:17:01;26.80;;;15.35;;
28266;SDS011;15525;45.568;5.448;2023-02-28T15:19:34;22.73;;;14.80;;
28266;SDS011;15525;45.568;5.448;2023-02-28T15:22:04;24.88;;;14.73;;
28266;SDS011;15525;45.568;5.448;2023-02-28T15:24:43;27.45;;;15.70;;
28266;SDS011;15525;45.568;5.448;2023-02-28T15:27:30;24.80;;;15.15;;
28266;SDS011;15525;45.568;5.448;2023-02-28T15:29:59;25.38;;;15.35;;
28266;SDS011;15525;45.568;5.448;2023-02-28T15:32:33;28.08;;;15.93;;
28266;SDS011;15525;45.568;5.448;2023-02-28T15:37:53;29.23;;;15.38;;
28266;SDS011;15525;45.568;5.448;2023-02-28T15:40:37;24.67;;;15.38;;
28266;SDS011;15525;45.568;5.448;2023-02-28T15:43:06;24.58;;;14.70;;
28266;SDS011;15525;45.568;5.448;2023-02-28T15:45:44;23.35;;;15.02;;
28266;SDS011;15525;45.568;5.448;2023-02-28T15:48:28;23.63;;;14.23;;
28266;SDS011;15525;45.568;5.448;2023-02-28T15:51:06;24.63;;;14.73;;
28266;SDS011;15525;45.568;5.448;2023-02-28T15:54:00;25.10;;;14.63;;
28266;SDS011;15525;45.568;5.448;2023-02-28T15:56:47;23.73;;;14.75;;
28266;SDS011;15525;45.568;5.448;2023-02-28T15:59:18;24.13;;;14.20;;
28266;SDS011;15525;45.568;5.448;2023-02-28T16:01:46;23.10;;;13.85;;
28266;SDS011;15525;45.568;5.448;2023-02-28T16:04:18;25.08;;;15.43;;
28266;SDS011;15525;45.568;5.448;2023-02-28T16:06:45;25.23;;;15.30;;
28266;SDS011;15525;45.568;5.448;2023-02-28T16:09:16;24.67;;;15.52;;
28266;SDS011;15525;45.568;5.448;2023-02-28T16:11:43;27.98;;;15.05;;
28266;SDS011;15525;45.568;5.448;2023-02-28T16:14:13;25.63;;;14.93;;
28266;SDS011;15525;45.568;5.448;2023-02-28T16:16:42;22.77;;;14.60;;
28266;SDS011;15525;45.568;5.448;2023-02-28T16:19:09;27.73;;;15.05;;
28266;SDS011;15525;45.568;5.448;2023-02-28T16:21:34;25.73;;;14.60;;
28266;SDS011;15525;45.568;5.448;2023-02-28T16:23:59;27.83;;;15.20;;
28266;SDS011;15525;45.568;5.448;2023-02-28T16:26:25;26.52;;;15.45;;
28266;SDS011;15525;45.568;5.448;2023-02-28T16:28:52;26.98;;;15.73;;
28266;SDS011;15525;45.568;5.448;2023-02-28T16:31:18;24.38;;;15.20;;
28266;SDS011;15525;45.568;5.448;2023-02-28T16:33:44;26.63;;;14.70;;
28266;SDS011;15525;45.568;5.448;2023-02-28T16:36:15;26.77;;;15.15;;
28266;SDS011;15525;45.568;5.448;2023-02-28T16:38:43;27.85;;;14.82;;
28266;SDS011;15525;45.568;5.448;2023-02-28T16:41:14;24.85;;;14.95;;
28266;SDS011;15525;45.568;5.448;2023-02-28T16:43:44;28.40;;;15.15;;
28266;SDS011;15525;45.568;5.448;2023-02-28T16:46:12;26.05;;;15.68;;
28266;SDS011;15525;45.568;5.448;2023-02-28T16:48:38;27.77;;;15.27;;
28266;SDS011;15525;45.568;5.448;2023-02-28T16:51:06;28.95;;;16.13;;
28266;SDS011;15525;45.568;5.448;2023-02-28T16:53:36;27.15;;;16.73;;
28266;SDS011;15525;45.568;5.448;2023-02-28T16:56:01;28.40;;;16.25;;
28266;SDS011;15525;45.568;5.448;2023-02-28T16:58:27;27.73;;;16.52;;
28266;SDS011;15525;45.568;5.448;2023-02-28T17:00:52;29.90;;;16.23;;
28266;SDS011;15525;45.568;5.448;2023-02-28T17:03:27;32.45;;;16.77;;
28266;SDS011;15525;45.568;5.448;2023-02-28T17:05:53;26.02;;;15.45;;
28266;SDS011;15525;45.568;5.448;2023-02-28T17:08:19;27.30;;;15.93;;
28266;SDS011;15525;45.568;5.448;2023-02-28T17:10:45;30.27;;;16.48;;
28266;SDS011;15525;45.568;5.448;2023-02-28T17:13:10;29.95;;;16.73;;
28266;SDS011;15525;45.568;5.448;2023-02-28T17:15:36;29.83;;;15.95;;
28266;SDS011;15525;45.568;5.448;2023-02-28T17:18:03;28.23;;;16.75;;
28266;SDS011;15525;45.568;5.448;2023-02-28T17:20:30;35.00;;;18.73;;